Time;durP1;ratioP1;P1;durP2;ratioP2;P2;SDS_P1;SDS_P2;PMS_P1;PMS_P2;Temp;Humidity;BMP_temperature;BMP_pressure;BME280_temperature;BME280_humidity;BME280_pressure;Samples;Min_cycle;Max_cycle;Signal;HPM_P1;HPM_P2
2022/01/25 00:15:01;;;;;;;33.97;23.23;;;3.20;1.00;;;;;;5093880;28;20239;-77
2022/01/25 00:24:45;;;;;;;32.77;23.20;;;3.20;1.00;;;;;;5093956;28;20220;-81
2022/01/25 00:27:26;;;;;;;32.17;23.57;;;3.20;1.00;;;;;;5093943;28;20561;-81
2022/01/25 00:30:22;;;;;;;30.50;20.40;;;3.10;1.00;;;;;;5093531;28;20256;-80
2022/01/25 00:32:49;;;;;;;32.30;21.13;;;3.10;1.00;;;;;;5093268;28;20223;-77
2022/01/25 00:35:17;;;;;;;25.33;19.93;;;3.10;1.00;;;;;;5093474;28;20251;-77
2022/01/25 00:37:44;;;;;;;30.47;22.20;;;3.10;1.00;;;;;;5093131;28;20206;-77
2022/01/25 00:40:12;;;;;;;30.70;20.63;;;3.00;1.00;;;;;;5093759;28;20283;-78
2022/01/25 00:42:39;;;;;;;27.93;22.60;;;2.90;1.00;;;;;;5093526;28;20202;-79
2022/01/25 00:45:08;;;;;;;28.77;20.80;;;3.00;1.00;;;;;;5093910;28;20205;-79
2022/01/25 00:47:35;;;;;;;27.93;22.30;;;3.00;1.00;;;;;;5093900;28;20552;-80
2022/01/25 00:50:02;;;;;;;30.17;21.70;;;2.90;1.00;;;;;;5093141;28;20233;-78
2022/01/25 00:55:12;;;;;;;31.97;22.10;;;2.90;1.00;;;;;;5093045;28;20201;-78
2022/01/25 00:57:40;;;;;;;29.13;21.67;;;2.90;1.00;;;;;;5093023;28;20259;-77
2022/01/25 01:00:10;;;;;;;30.20;22.43;;;2.90;1.00;;;;;;5093497;28;20254;-76
2022/01/25 01:02:37;;;;;;;26.53;22.20;;;2.80;1.00;;;;;;5093368;28;20197;-78
2022/01/25 01:05:05;;;;;;;27.13;20.63;;;2.90;1.00;;;;;;5093398;28;20205;-78
2022/01/25 01:07:33;;;;;;;25.57;20.40;;;2.80;1.00;;;;;;5092726;28;20220;-78
2022/01/25 01:10:01;;;;;;;28.10;19.37;;;2.80;1.00;;;;;;5092646;28;20198;-78
2022/01/25 01:15:23;;;;;;;30.57;22.00;;;2.80;1.00;;;;;;5066887;28;20204;-78
2022/01/25 01:37:44;;;;;;;25.47;20.10;;;2.60;1.00;;;;;;5092248;28;20237;-77
2022/01/25 01:40:44;;;;;;;29.63;22.43;;;2.60;1.00;;;;;;5092368;28;20209;-77
2022/01/25 01:43:29;;;;;;;36.43;24.13;;;2.60;1.00;;;;;;5092210;28;20581;-77
2022/01/25 01:46:04;;;;;;;29.93;22.07;;;2.50;1.00;;;;;;5092028;28;20247;-79
2022/01/25 01:48:34;;;;;;;34.00;23.17;;;2.50;1.00;;;;;;5092255;28;20668;-77
2022/01/25 01:51:07;;;;;;;31.33;24.30;;;2.50;1.00;;;;;;5091626;28;20284;-77
2022/01/25 01:53:35;;;;;;;39.10;24.57;;;2.50;1.00;;;;;;5092427;28;20202;-77
2022/01/25 01:56:04;;;;;;;32.87;23.97;;;2.50;1.00;;;;;;5091809;28;20236;-78
2022/01/25 01:58:31;;;;;;;43.40;26.13;;;2.50;1.00;;;;;;5092009;28;20669;-78
2022/01/25 02:00:58;;;;;;;59.60;36.33;;;2.40;1.00;;;;;;5091640;28;20624;-78
2022/01/25 02:03:25;;;;;;;61.00;38.33;;;2.40;1.00;;;;;;5091697;28;20583;-77
2022/01/25 02:05:52;;;;;;;64.67;39.60;;;2.40;1.00;;;;;;5091635;28;20202;-77
2022/01/25 02:08:20;;;;;;;51.60;34.03;;;2.40;1.00;;;;;;5091736;28;20201;-78
2022/01/25 02:10:47;;;;;;;43.77;29.27;;;2.40;1.00;;;;;;5091458;28;20676;-77
2022/01/25 02:13:15;;;;;;;37.87;26.50;;;2.40;1.00;;;;;;5091903;28;20248;-77
2022/01/25 02:15:47;;;;;;;44.37;28.00;;;2.40;1.00;;;;;;5091225;28;20225;-77
2022/01/25 02:23:46;;;;;;;33.10;24.37;;;2.40;1.00;;;;;;5090864;28;20215;-79
2022/01/25 02:26:14;;;;;;;31.43;20.33;;;2.40;1.00;;;;;;5091536;28;20668;-78
2022/01/25 02:28:42;;;;;;;30.33;22.87;;;2.30;1.00;;;;;;5091150;28;20201;-78
2022/01/25 02:31:11;;;;;;;38.70;23.17;;;2.30;1.00;;;;;;5091500;28;20196;-78
2022/01/25 02:33:38;;;;;;;30.60;21.23;;;2.30;1.00;;;;;;5091296;28;20206;-77
2022/01/25 02:36:12;;;;;;;28.97;22.30;;;2.30;1.00;;;;;;5091605;28;20583;-78
2022/01/25 02:38:39;;;;;;;33.33;21.67;;;2.30;1.00;;;;;;5091111;28;20205;-76
2022/01/25 02:41:06;;;;;;;32.33;21.93;;;2.20;1.00;;;;;;5091601;28;20201;-77
2022/01/25 02:43:35;;;;;;;30.67;21.93;;;2.20;1.00;;;;;;5091652;28;20205;-77
2022/01/25 02:46:19;;;;;;;29.10;22.07;;;2.20;1.00;;;;;;5090892;28;20292;-77
2022/01/25 02:48:55;;;;;;;30.27;22.67;;;2.20;1.00;;;;;;5076290;28;20283;-77
2022/01/25 02:51:27;;;;;;;28.30;23.87;;;2.20;1.00;;;;;;5071341;28;20280;-77
2022/01/25 02:53:55;;;;;;;28.60;20.67;;;2.10;1.00;;;;;;5070575;28;20259;-77
2022/01/25 02:56:23;;;;;;;28.03;20.67;;;2.20;1.00;;;;;;5070842;28;20237;-77
2022/01/25 02:58:51;;;;;;;30.53;21.60;;;2.10;99.90;;;;;;5070387;28;20256;-77
2022/01/25 03:01:18;;;;;;;28.10;21.83;;;2.00;99.90;;;;;;5070833;28;20198;-77
2022/01/25 03:03:46;;;;;;;29.73;21.53;;;2.00;99.90;;;;;;5070192;28;20251;-77
2022/01/25 03:06:15;;;;;;;30.10;21.77;;;2.00;99.90;;;;;;5071072;28;20259;-75
2022/01/25 03:08:44;;;;;;;25.87;19.10;;;2.00;99.90;;;;;;5069030;28;20692;-76
2022/01/25 03:11:11;;;;;;;28.40;20.40;;;2.00;99.90;;;;;;5071025;28;20210;-77
2022/01/25 03:13:49;;;;;;;29.93;23.20;;;1.90;99.90;;;;;;5070686;28;20198;-75
2022/01/25 03:16:21;;;;;;;29.83;22.37;;;2.00;99.90;;;;;;5070633;28;20234;-78
2022/01/25 03:18:49;;;;;;;25.77;20.23;;;1.70;1.00;;;;;;5069742;28;20673;-76
2022/01/25 03:21:35;;;;;;;28.00;20.47;;;1.70;1.00;;;;;;5070432;28;20237;-78
2022/01/25 03:24:05;;;;;;;29.70;19.40;;;1.40;1.00;;;;;;5069165;28;20216;-76
2022/01/25 03:26:33;;;;;;;29.40;20.33;;;1.30;1.00;;;;;;5070603;28;20653;-75
2022/01/25 03:29:01;;;;;;;26.50;20.20;;;1.40;99.90;;;;;;5070140;28;20275;-75
2022/01/25 03:31:28;;;;;;;25.53;18.83;;;1.30;99.90;;;;;;5070328;28;20619;-78
2022/01/25 03:33:55;;;;;;;26.13;18.60;;;1.30;99.90;;;;;;5069984;28;20251;-78
2022/01/25 03:36:22;;;;;;;22.47;17.57;;;1.20;92.50;;;;;;5073655;28;20229;-77
2022/01/25 03:38:49;;;;;;;24.53;17.70;;;1.20;52.90;;;;;;5074048;28;20731;-77
2022/01/25 03:41:18;;;;;;;23.60;18.87;;;1.10;99.90;;;;;;5074511;28;20205;-76
2022/01/25 03:43:52;;;;;;;27.47;17.70;;;1.20;99.90;;;;;;5073889;28;20235;-78
2022/01/25 03:46:24;;;;;;;21.10;16.40;;;1.40;99.90;;;;;;5074316;28;20230;-80
2022/01/25 03:51:36;;;;;;;23.10;18.63;;;1.40;1.00;;;;;;5074581;28;20305;-80
2022/01/25 03:54:04;;;;;;;23.63;18.03;;;1.50;1.00;;;;;;5074443;28;20198;-80
2022/01/25 03:56:33;;;;;;;25.00;18.00;;;1.50;1.00;;;;;;5073929;28;20641;-78
2022/01/25 03:59:01;;;;;;;23.77;18.20;;;1.50;1.00;;;;;;5073704;28;20207;-78
2022/01/25 04:01:29;;;;;;;25.47;18.30;;;1.50;1.00;;;;;;5073936;28;20206;-76
2022/01/25 04:04:00;;;;;;;26.57;18.70;;;1.30;99.90;;;;;;5073588;28;20660;-78
2022/01/25 04:06:30;;;;;;;29.93;20.77;;;1.20;1.00;;;;;;5073883;28;20233;-78
2022/01/25 04:08:58;;;;;;;24.10;18.00;;;1.00;1.00;;;;;;5073477;28;20210;-77
2022/01/25 04:11:25;;;;;;;22.27;18.33;;;1.00;1.00;;;;;;5073964;28;20208;-78
2022/01/25 04:13:56;;;;;;;23.40;18.07;;;0.90;1.00;;;;;;5073373;28;20618;-78
2022/01/25 04:16:28;;;;;;;23.50;17.33;;;0.90;1.00;;;;;;5073371;28;20233;-77
2022/01/25 04:19:07;;;;;;;24.80;19.07;;;0.70;1.00;;;;;;5073366;28;20234;-78
2022/01/25 04:27:09;;;;;;;24.77;19.13;;;0.70;99.90;;;;;;5073506;28;20343;-78
2022/01/25 04:29:38;;;;;;;24.77;18.77;;;0.70;99.90;;;;;;5074018;28;20202;-78
2022/01/25 04:32:07;;;;;;;24.20;18.43;;;0.70;99.90;;;;;;5073627;28;20204;-78
2022/01/25 04:34:44;;;;;;;23.57;17.77;;;0.60;99.90;;;;;;5074682;28;20204;-77
2022/01/25 04:51:26;;;;;;;23.20;17.80;;;0.60;1.00;;;;;;5073434;28;20201;-76
2022/01/25 04:53:59;;;;;;;21.67;17.10;;;0.40;1.00;;;;;;5072667;28;20208;-77
2022/01/25 04:56:32;;;;;;;23.80;18.40;;;0.50;18.30;;;;;;5084116;28;20300;-76
2022/01/25 04:59:06;;;;;;;25.27;17.60;;;0.50;99.90;;;;;;5092412;28;20209;-79
2022/01/25 05:01:36;;;;;;;24.17;19.00;;;0.40;99.90;;;;;;5093291;28;20201;-80
2022/01/25 05:04:08;;;;;;;23.67;19.07;;;0.40;99.90;;;;;;5093155;28;20212;-77
2022/01/25 05:06:35;;;;;;;23.90;17.73;;;0.50;99.90;;;;;;5093248;28;20252;-78
2022/01/25 05:09:09;;;;;;;26.27;18.53;;;0.60;99.90;;;;;;5093014;28;20206;-79
2022/01/25 05:11:38;;;;;;;24.33;17.47;;;0.60;90.10;;;;;;5093122;28;20213;-78
2022/01/25 05:14:21;;;;;;;19.47;16.40;;;0.60;1.00;;;;;;5093221;28;20220;-78
2022/01/25 05:16:57;;;;;;;26.27;19.13;;;0.70;1.00;;;;;;5092406;28;20204;-80
2022/01/25 05:22:19;;;;;;;21.30;16.57;;;0.80;1.00;;;;;;5092967;28;20209;-79
2022/01/25 05:24:47;;;;;;;23.20;17.10;;;0.80;1.00;;;;;;5092023;28;20634;-79
2022/01/25 05:27:16;;;;;;;23.80;18.53;;;0.90;1.00;;;;;;5092473;28;20734;-78
2022/01/25 05:29:43;;;;;;;25.67;16.70;;;0.80;1.00;;;;;;5092060;28;20205;-77
2022/01/25 05:32:11;;;;;;;21.97;16.60;;;0.80;1.00;;;;;;5092516;28;20198;-77
2022/01/25 05:34:39;;;;;;;21.40;15.60;;;0.80;99.90;;;;;;5092540;28;20201;-76
2022/01/25 05:37:07;;;;;;;21.00;15.60;;;0.90;99.90;;;;;;5092521;28;20647;-79
2022/01/25 05:39:36;;;;;;;23.37;17.10;;;0.70;99.90;;;;;;5092633;28;20234;-79
2022/01/25 05:42:32;;;;;;;19.63;16.33;;;0.60;1.00;;;;;;5091758;28;20209;-79
2022/01/25 05:45:12;;;;;;;22.77;16.23;;;0.60;1.00;;;;;;5091921;28;20210;-79
2022/01/25 05:47:43;;;;;;;20.70;15.80;;;0.60;1.00;;;;;;5092067;28;20212;-79
2022/01/25 05:50:12;;;;;;;21.77;15.30;;;0.70;1.00;;;;;;5092494;28;20280;-79
2022/01/25 05:52:39;;;;;;;19.83;15.47;;;0.60;1.00;;;;;;5092188;28;20288;-79
2022/01/25 05:55:08;;;;;;;19.07;13.77;;;0.60;1.00;;;;;;5092037;28;20201;-79
2022/01/25 05:57:35;;;;;;;18.77;13.97;;;0.60;1.00;;;;;;5091454;28;20709;-79
2022/01/25 06:00:02;;;;;;;20.57;15.40;;;0.70;1.00;;;;;;5092901;28;20664;-80
2022/01/25 06:02:31;;;;;;;19.93;16.07;;;1.00;1.00;;;;;;5092048;28;20259;-77
2022/01/25 06:04:59;;;;;;;23.53;16.00;;;1.10;99.90;;;;;;5091428;28;20209;-78
2022/01/25 06:07:27;;;;;;;21.60;14.60;;;0.90;36.40;;;;;;5091804;28;20566;-77
2022/01/25 06:09:54;;;;;;;25.50;17.27;;;0.80;64.10;;;;;;5091568;28;20292;-78
2022/01/25 06:12:21;;;;;;;30.10;20.30;;;0.80;99.90;;;;;;5091821;28;20207;-77
2022/01/25 06:14:48;;;;;;;23.77;15.50;;;0.70;99.90;;;;;;5091210;28;20201;-77
2022/01/25 06:17:15;;;;;;;27.23;16.73;;;0.70;99.90;;;;;;5090582;28;20565;-78
2022/01/25 06:19:43;;;;;;;25.07;16.27;;;0.70;99.90;;;;;;5091386;28;20202;-77
2022/01/25 06:22:11;;;;;;;23.80;16.07;;;0.60;99.90;;;;;;5091600;28;20227;-77
2022/01/25 06:24:39;;;;;;;19.93;16.23;;;0.70;99.90;;;;;;5091367;28;20636;-77
2022/01/25 06:27:07;;;;;;;25.13;17.50;;;0.60;99.90;;;;;;5091253;28;20205;-77
2022/01/25 06:29:34;;;;;;;21.10;15.20;;;0.40;99.90;;;;;;5091670;28;20206;-79
2022/01/25 06:32:01;;;;;;;21.47;16.70;;;0.30;1.00;;;;;;5091195;28;20254;-79
2022/01/25 06:34:28;;;;;;;20.10;16.00;;;0.30;1.00;;;;;;5091594;28;20342;-77
2022/01/25 06:36:55;;;;;;;21.97;16.23;;;0.40;1.00;;;;;;5082411;28;20206;-77
2022/01/25 06:39:23;;;;;;;25.77;17.83;;;0.20;1.00;;;;;;5071063;28;20375;-78
2022/01/25 06:41:51;;;;;;;22.57;16.90;;;0.30;1.00;;;;;;5072658;28;20255;-78
2022/01/25 06:44:18;;;;;;;23.97;15.87;;;0.40;1.00;;;;;;5091352;28;20206;-77
2022/01/25 06:46:46;;;;;;;27.70;16.67;;;0.40;1.00;;;;;;5091030;28;20202;-78
2022/01/25 06:49:14;;;;;;;25.07;16.07;;;0.50;1.00;;;;;;5091289;28;20301;-79
2022/01/25 06:51:41;;;;;;;25.80;17.77;;;0.50;1.00;;;;;;5090882;28;20288;-78
2022/01/25 06:54:09;;;;;;;23.43;16.17;;;0.50;1.00;;;;;;5087772;28;20199;-78
2022/01/25 06:56:37;;;;;;;26.50;17.07;;;0.60;99.90;;;;;;5070706;28;20208;-78
2022/01/25 06:59:04;;;;;;;21.20;17.20;;;0.50;99.90;;;;;;5070668;28;20713;-78
2022/01/25 07:01:32;;;;;;;23.63;18.20;;;0.50;99.90;;;;;;5071049;28;20260;-78
2022/01/25 07:03:59;;;;;;;22.57;16.13;;;0.60;99.90;;;;;;5070916;28;20263;-83
2022/01/25 07:06:26;;;;;;;22.07;15.60;;;0.50;99.90;;;;;;5082410;28;20205;-82
2022/01/25 07:08:53;;;;;;;20.60;17.20;;;0.50;99.90;;;;;;5090366;28;20290;-83
2022/01/25 07:11:21;;;;;;;21.57;16.30;;;0.40;99.90;;;;;;5089949;28;20677;-81
2022/01/25 07:13:50;;;;;;;25.60;18.27;;;0.50;99.90;;;;;;5090574;28;20209;-82
2022/01/25 07:16:17;;;;;;;25.97;17.37;;;0.40;99.90;;;;;;5091304;28;20261;-82
2022/01/25 07:18:44;;;;;;;23.23;17.50;;;0.50;99.90;;;;;;5090308;28;20746;-81
2022/01/25 07:21:11;;;;;;;24.30;16.67;;;0.50;99.90;;;;;;5090758;28;20251;-79
2022/01/25 07:23:38;;;;;;;26.43;18.17;;;0.40;99.90;;;;;;5090294;28;20209;-79
2022/01/25 07:26:06;;;;;;;24.90;17.93;;;0.40;99.90;;;;;;5090821;28;20209;-79
2022/01/25 07:28:33;;;;;;;25.40;17.33;;;0.40;99.90;;;;;;5090837;28;20292;-79
2022/01/25 07:31:02;;;;;;;23.10;17.90;;;0.60;99.90;;;;;;5084111;28;20297;-79
2022/01/25 07:33:29;;;;;;;25.37;17.07;;;0.60;99.90;;;;;;5085983;28;20290;-79
2022/01/25 07:35:56;;;;;;;23.40;18.07;;;0.70;96.40;;;;;;5090301;28;20217;-79
2022/01/25 07:38:23;;;;;;;21.13;15.90;;;0.70;21.70;;;;;;5089895;28;20229;-79
2022/01/25 07:40:51;;;;;;;28.70;18.33;;;0.80;8.90;;;;;;5090308;28;20251;-79
2022/01/25 07:43:18;;;;;;;26.43;18.23;;;0.70;75.00;;;;;;5090364;28;20282;-78
2022/01/25 07:45:50;;;;;;;29.00;17.47;;;0.70;99.90;;;;;;5089945;28;20205;-79
2022/01/25 07:48:20;;;;;;;23.73;17.33;;;1.20;99.90;;;;;;5090410;28;20210;-79
2022/01/25 07:50:47;;;;;;;23.37;16.80;;;1.40;1.00;;;;;;5090161;28;20201;-79
2022/01/25 07:53:14;;;;;;;21.97;15.90;;;1.60;1.00;;;;;;5090061;28;20217;-78
2022/01/25 07:55:41;;;;;;;31.73;22.60;;;1.50;1.00;;;;;;5089860;28;20205;-78
2022/01/25 07:58:08;;;;;;;25.33;17.70;;;1.40;1.00;;;;;;5090322;28;20225;-79
2022/01/25 08:00:35;;;;;;;26.63;18.93;;;1.60;1.00;;;;;;5090519;28;20202;-79
2022/01/25 08:03:02;;;;;;;26.57;18.70;;;1.60;1.00;;;;;;5090064;28;20270;-74
2022/01/25 08:05:31;;;;;;;23.77;17.13;;;1.70;1.00;;;;;;5090069;28;20206;-77
2022/01/25 08:07:59;;;;;;;25.80;17.80;;;2.10;1.00;;;;;;5090219;28;20614;-78
2022/01/25 08:10:27;;;;;;;28.77;20.23;;;2.40;1.00;;;;;;5090180;28;20208;-78
2022/01/25 08:12:54;;;;;;;27.97;20.00;;;2.30;1.00;;;;;;5089851;28;20672;-79
2022/01/25 08:15:24;;;;;;;22.67;19.33;;;2.40;1.00;;;;;;5090066;28;20658;-79
2022/01/25 08:17:51;;;;;;;36.57;20.23;;;2.70;1.00;;;;;;5089705;28;20236;-77
2022/01/25 08:20:18;;;;;;;28.07;19.53;;;2.90;1.00;;;;;;5090084;28;20247;-78
2022/01/25 08:22:46;;;;;;;22.23;18.27;;;3.20;1.00;;;;;;5093049;28;20648;-78
2022/01/25 08:25:14;;;;;;;25.87;18.03;;;3.00;1.00;;;;;;5093581;28;20209;-77
2022/01/25 08:27:41;;;;;;;26.07;17.93;;;2.80;1.00;;;;;;5093183;28;20202;-77
2022/01/25 08:30:09;;;;;;;25.70;16.67;;;2.70;1.00;;;;;;5093639;28;20322;-76
2022/01/25 08:32:36;;;;;;;23.87;17.97;;;2.60;1.00;;;;;;5093721;28;20201;-76
2022/01/25 08:35:03;;;;;;;35.47;19.80;;;2.80;1.00;;;;;;5092395;28;20669;-75
2022/01/25 08:37:30;;;;;;;27.47;17.73;;;3.00;1.00;;;;;;5078665;28;20209;-76
2022/01/25 08:39:59;;;;;;;38.00;19.83;;;3.00;1.00;;;;;;5089822;28;20241;-75
2022/01/25 08:42:26;;;;;;;35.37;20.73;;;3.00;1.00;;;;;;5093233;28;20201;-76
2022/01/25 08:44:53;;;;;;;27.43;19.67;;;3.40;1.00;;;;;;5083355;28;20255;-75
2022/01/25 08:47:20;;;;;;;26.07;18.30;;;3.70;1.00;;;;;;5093106;28;20633;-76
2022/01/25 08:49:47;;;;;;;24.00;17.13;;;3.70;1.00;;;;;;5092816;28;20201;-76
2022/01/25 08:52:14;;;;;;;22.00;17.90;;;3.80;1.00;;;;;;5092775;28;20624;-75
2022/01/25 08:54:41;;;;;;;30.70;17.30;;;3.50;1.00;;;;;;5092358;28;20201;-76
2022/01/25 08:57:09;;;;;;;25.50;17.77;;;3.70;1.00;;;;;;5077454;28;20258;-75
2022/01/25 08:59:36;;;;;;;20.93;15.27;;;3.80;1.00;;;;;;5093023;28;20225;-76
2022/01/25 09:02:04;;;;;;;21.67;15.77;;;4.40;1.00;;;;;;5086055;28;20620;-76
2022/01/25 09:04:31;;;;;;;25.73;16.57;;;4.30;1.00;;;;;;5088751;28;20665;-73
2022/01/25 09:06:58;;;;;;;22.77;17.23;;;5.00;1.00;;;;;;5091907;28;20623;-85
2022/01/25 09:09:25;;;;;;;27.13;17.73;;;5.10;1.00;;;;;;5085579;28;20271;-73
2022/01/25 09:11:52;;;;;;;26.27;17.57;;;5.30;1.00;;;;;;5082626;28;20257;-73
2022/01/25 09:14:21;;;;;;;23.53;15.90;;;5.50;1.00;;;;;;5078997;28;20267;-73
2022/01/25 09:16:48;;;;;;;24.97;17.00;;;5.70;1.00;;;;;;5086387;28;20206;-73
2022/01/25 09:19:16;;;;;;;22.20;16.93;;;5.90;1.00;;;;;;5084826;28;20653;-73
2022/01/25 09:21:43;;;;;;;22.23;15.97;;;5.60;1.00;;;;;;5085185;28;20202;-76
2022/01/25 09:24:11;;;;;;;23.33;15.93;;;5.50;1.00;;;;;;5088462;28;20628;-74
2022/01/25 09:26:38;;;;;;;23.83;17.67;;;5.80;1.00;;;;;;5086886;28;20205;-75
2022/01/25 09:29:05;;;;;;;35.47;20.90;;;6.40;1.00;;;;;;5092537;28;20673;-75
2022/01/25 09:31:34;;;;;;;25.83;21.00;;;7.10;1.00;;;;;;5092717;28;20205;-73
2022/01/25 09:34:01;;;;;;;22.43;16.63;;;7.80;1.00;;;;;;5089742;28;20612;-74
2022/01/25 09:36:29;;;;;;;21.40;16.43;;;7.90;1.00;;;;;;5087109;28;20269;-74
2022/01/25 09:38:57;;;;;;;23.17;17.10;;;7.20;1.00;;;;;;5089976;28;20225;-75
2022/01/25 09:41:25;;;;;;;25.20;16.57;;;6.80;1.00;;;;;;5092182;28;20214;-75
2022/01/25 09:43:52;;;;;;;20.83;15.50;;;6.40;1.00;;;;;;5091753;28;20205;-73
2022/01/25 09:46:19;;;;;;;22.00;16.13;;;6.10;1.00;;;;;;5092311;28;20209;-74
2022/01/25 09:48:49;;;;;;;26.50;18.03;;;6.00;1.00;;;;;;5091411;28;20272;-75
2022/01/25 09:51:19;;;;;;;25.93;18.47;;;5.70;1.00;;;;;;5079505;28;20210;-74
2022/01/25 09:53:46;;;;;;;28.53;20.60;;;5.70;1.00;;;;;;5086612;28;20213;-74
2022/01/25 09:56:13;;;;;;;27.90;18.27;;;6.80;1.00;;;;;;5072514;28;21025;-75
2022/01/25 09:58:42;;;;;;;29.73;19.80;;;8.10;1.00;;;;;;5078110;28;20232;-74
2022/01/25 10:01:09;;;;;;;24.00;16.90;;;7.60;1.00;;;;;;5084426;28;20681;-75
2022/01/25 10:03:38;;;;;;;26.50;17.73;;;8.20;1.00;;;;;;5079931;28;20206;-74
2022/01/25 10:06:14;;;;;;;22.37;18.30;;;10.00;1.00;;;;;;5080760;28;20241;-76
2022/01/25 10:08:42;;;;;;;25.67;18.20;;;10.60;1.00;;;;;;5075037;28;20217;-76
2022/01/25 10:11:10;;;;;;;28.27;19.03;;;10.90;1.00;;;;;;5072858;28;20206;-76
2022/01/25 10:13:39;;;;;;;24.93;18.43;;;12.80;1.00;;;;;;5071608;28;20203;-77
2022/01/25 10:16:08;;;;;;;25.87;18.37;;;14.20;1.00;;;;;;5071957;28;20205;-76
2022/01/25 10:18:46;;;;;;;22.83;17.23;;;14.00;1.00;;;;;;5080266;28;20241;-77
2022/01/25 10:21:18;;;;;;;26.17;18.57;;;14.00;1.00;;;;;;5082259;28;20209;-76
2022/01/25 10:24:07;;;;;;;23.73;18.77;;;13.30;1.00;;;;;;5090971;28;20676;-75
2022/01/25 10:26:38;;;;;;;26.67;17.53;;;12.20;1.00;;;;;;5078712;28;20209;-75
2022/01/25 10:29:06;;;;;;;23.03;17.27;;;13.10;1.00;;;;;;5086793;28;20205;-75
2022/01/25 10:31:37;;;;;;;24.10;18.83;;;13.90;1.00;;;;;;5083989;28;20210;-75
2022/01/25 10:34:07;;;;;;;22.98;18.10;;;14.70;99.90;;;;;;5091541;28;20209;-74
2022/01/25 10:36:42;;;;;;;24.83;17.77;;;14.30;99.90;;;;;;5082040;28;20206;-76
2022/01/25 10:39:09;;;;;;;27.03;17.93;;;10.70;99.90;;;;;;5071079;28;20950;-75
2022/01/25 10:41:36;;;;;;;26.77;17.67;;;8.40;1.00;;;;;;5080041;28;20228;-77
2022/01/25 10:44:06;;;;;;;28.27;18.83;;;7.10;1.00;;;;;;5088345;28;20228;-78
2022/01/25 10:46:34;;;;;;;26.97;20.17;;;6.60;1.00;;;;;;5101733;28;20260;-78
2022/01/25 10:49:04;;;;;;;24.33;18.43;;;6.40;1.00;;;;;;5090203;28;20213;-77
2022/01/25 10:51:33;;;;;;;31.63;20.17;;;6.30;1.00;;;;;;5095008;28;20251;-77
2022/01/25 10:54:07;;;;;;;24.30;19.40;;;6.30;1.00;;;;;;5084747;28;20256;-76
2022/01/25 10:56:36;;;;;;;23.53;18.60;;;6.20;1.00;;;;;;5080740;28;20206;-78
2022/01/25 10:59:06;;;;;;;26.70;18.47;;;6.30;1.00;;;;;;5083636;28;20261;-76
2022/01/25 11:01:34;;;;;;;26.10;20.03;;;6.40;1.00;;;;;;5075834;28;20206;-77
2022/01/25 11:04:07;;;;;;;28.63;19.37;;;6.50;1.00;;;;;;5090326;28;20656;-77
2022/01/25 11:06:34;;;;;;;27.00;17.63;;;6.50;1.00;;;;;;5088986;28;20789;-79
2022/01/25 11:09:05;;;;;;;27.90;18.87;;;6.60;1.00;;;;;;5071877;28;20210;-76
2022/01/25 11:11:38;;;;;;;25.97;19.27;;;6.90;1.00;;;;;;5088732;28;20247;-76
2022/01/25 11:16:51;;;;;;;24.20;18.00;;;7.00;1.00;;;;;;5085031;28;20609;-76
2022/01/25 11:19:18;;;;;;;25.00;18.13;;;7.10;1.00;;;;;;5084851;28;20670;-76
2022/01/25 11:21:46;;;;;;;24.13;19.20;;;7.20;1.00;;;;;;5083210;28;20625;-76
2022/01/25 11:24:16;;;;;;;25.03;17.27;;;7.30;1.00;;;;;;5081880;28;20625;-77
2022/01/25 11:26:44;;;;;;;24.17;19.73;;;7.40;1.00;;;;;;5087896;28;20197;-79
2022/01/25 11:29:12;;;;;;;26.20;19.70;;;7.50;1.00;;;;;;5080159;28;20205;-77
2022/01/25 11:31:41;;;;;;;27.60;18.67;;;7.60;1.00;;;;;;5084974;28;20198;-77
2022/01/25 11:34:13;;;;;;;29.50;21.00;;;7.60;1.00;;;;;;5084337;28;20271;-76
2022/01/25 11:36:46;;;;;;;30.60;23.87;;;7.70;1.00;;;;;;5077678;28;20258;-77
2022/01/25 11:39:19;;;;;;;27.73;22.17;;;7.90;1.00;;;;;;5080884;28;20302;-78
2022/01/25 11:41:46;;;;;;;34.10;21.30;;;8.00;1.00;;;;;;5083353;28;20266;-78
2022/01/25 11:44:18;;;;;;;29.73;19.60;;;8.10;1.00;;;;;;5090187;28;20672;-79
2022/01/25 11:46:50;;;;;;;29.30;21.97;;;8.20;1.00;;;;;;5085656;28;20210;-79
2022/01/25 11:49:19;;;;;;;25.60;19.63;;;8.30;1.00;;;;;;5073496;28;20214;-80
2022/01/25 11:51:47;;;;;;;25.67;17.50;;;8.40;1.00;;;;;;5070171;28;20740;-80
2022/01/25 11:54:15;;;;;;;24.50;19.80;;;8.40;1.00;;;;;;5070515;28;20268;-79
2022/01/25 11:56:42;;;;;;;21.37;18.67;;;8.60;1.00;;;;;;5071873;28;20209;-79
2022/01/25 11:59:13;;;;;;;24.53;18.30;;;8.70;1.00;;;;;;5073879;28;20648;-78
2022/01/25 12:01:40;;;;;;;21.57;16.73;;;8.80;1.00;;;;;;5093770;28;20241;-79
2022/01/25 12:04:11;;;;;;;21.33;17.47;;;8.90;1.00;;;;;;5094364;28;20202;-81
2022/01/25 12:06:44;;;;;;;25.30;17.73;;;9.00;1.00;;;;;;5094488;28;20205;-81
2022/01/25 12:09:30;;;;;;;25.40;19.20;;;9.00;1.00;;;;;;5094466;28;20205;-80
2022/01/25 12:12:01;;;;;;;28.37;18.03;;;9.10;1.00;;;;;;5078075;28;20714;-80
2022/01/25 12:14:30;;;;;;;24.60;18.23;;;9.20;1.00;;;;;;5083654;28;20288;-79
2022/01/25 12:17:10;;;;;;;23.93;16.67;;;9.30;1.00;;;;;;5088214;28;20582;-80
2022/01/25 12:19:44;;;;;;;24.47;17.63;;;9.40;1.00;;;;;;5078557;28;20257;-79
2022/01/25 12:22:17;;;;;;;21.77;17.37;;;9.50;1.00;;;;;;5088006;28;20213;-80
2022/01/25 12:25:02;;;;;;;23.23;16.57;;;9.60;1.00;;;;;;5093367;28;20258;-80
2022/01/25 12:27:56;;;;;;;23.70;16.80;;;9.70;1.00;;;;;;5094222;28;20241;-81
2022/01/25 12:30:36;;;;;;;20.27;15.90;;;9.70;1.00;;;;;;5082682;28;20209;-80
2022/01/25 12:33:05;;;;;;;18.67;15.93;;;9.80;1.00;;;;;;5080772;28;20312;-81
2022/01/25 12:35:43;;;;;;;26.57;16.50;;;10.00;1.00;;;;;;5079496;28;20217;-80
2022/01/25 12:38:13;;;;;;;19.13;16.03;;;10.00;1.00;;;;;;5083153;28;20205;-80
2022/01/25 12:40:53;;;;;;;20.40;16.57;;;10.00;1.00;;;;;;5086672;28;20728;-80
2022/01/25 12:43:23;;;;;;;20.23;15.10;;;10.10;1.00;;;;;;5073321;28;20210;-80
2022/01/25 12:45:55;;;;;;;18.20;14.90;;;10.30;1.00;;;;;;5073135;28;20628;-81
2022/01/25 12:48:27;;;;;;;23.57;15.50;;;10.30;1.00;;;;;;5075809;28;20201;-82
2022/01/25 12:50:56;;;;;;;20.87;15.23;;;10.50;1.00;;;;;;5085224;28;20662;-81
2022/01/25 12:53:25;;;;;;;21.33;15.87;;;10.50;1.00;;;;;;5083571;28;20212;-80
2022/01/25 12:55:56;;;;;;;18.10;14.90;;;10.50;1.00;;;;;;5078954;28;20210;-81
2022/01/25 12:58:30;;;;;;;23.03;16.27;;;10.50;1.00;;;;;;5077352;28;20206;-80
2022/01/25 13:00:59;;;;;;;18.57;14.70;;;10.60;1.00;;;;;;5092375;28;20782;-81
2022/01/25 13:03:30;;;;;;;19.53;13.87;;;10.70;1.00;;;;;;5087813;28;20263;-80
2022/01/25 13:06:01;;;;;;;18.40;14.17;;;10.70;1.00;;;;;;5091004;28;20210;-80
2022/01/25 13:08:33;;;;;;;19.40;13.83;;;10.70;1.00;;;;;;5092483;28;20213;-79
2022/01/25 13:11:26;;;;;;;18.40;14.37;;;10.80;1.00;;;;;;5085525;28;20213;-80
2022/01/25 13:14:17;;;;;;;20.53;14.17;;;10.80;1.00;;;;;;5072173;28;20297;-80
2022/01/25 13:16:49;;;;;;;18.57;13.53;;;10.80;1.00;;;;;;5088775;28;20201;-79
2022/01/25 13:19:19;;;;;;;18.80;14.43;;;10.80;1.00;;;;;;5077347;28;20666;-79
2022/01/25 13:21:50;;;;;;;21.53;14.23;;;10.90;1.00;;;;;;5081710;28;20885;-79
2022/01/25 13:24:19;;;;;;;19.63;13.83;;;10.90;1.00;;;;;;5077803;28;20681;-80
2022/01/25 13:26:54;;;;;;;18.23;14.23;;;10.80;1.00;;;;;;5077890;28;20201;-78
2022/01/25 13:32:16;;;;;;;17.50;15.20;;;10.90;1.00;;;;;;5072482;28;20594;-76
2022/01/25 13:34:43;;;;;;;19.90;14.13;;;11.00;1.00;;;;;;5089089;28;20201;-77
2022/01/25 13:37:20;;;;;;;14.77;12.87;;;10.90;1.00;;;;;;5084914;28;20267;-77
2022/01/25 13:39:57;;;;;;;19.03;12.43;;;11.00;1.00;;;;;;5071727;28;20226;-77
2022/01/25 13:42:32;;;;;;;20.30;12.63;;;11.10;1.00;;;;;;5071219;28;20673;-77
2022/01/25 13:48:01;;;;;;;16.10;12.40;;;11.20;1.00;;;;;;5085743;28;20217;-77
2022/01/25 13:50:29;;;;;;;13.27;11.43;;;11.30;1.00;;;;;;5091908;28;20210;-77
2022/01/25 13:52:56;;;;;;;14.17;11.80;;;11.30;1.00;;;;;;5076937;28;20206;-77
2022/01/25 13:55:23;;;;;;;21.03;12.50;;;11.30;1.00;;;;;;5071424;28;20256;-77
2022/01/25 13:57:51;;;;;;;16.40;12.97;;;11.30;1.00;;;;;;5069669;28;20206;-77
2022/01/25 14:00:21;;;;;;;15.97;12.53;;;11.20;1.00;;;;;;5071265;28;20238;-77
2022/01/25 14:02:52;;;;;;;17.33;13.43;;;11.10;1.00;;;;;;5071553;28;20275;-78
2022/01/25 14:05:20;;;;;;;16.47;12.57;;;11.20;1.00;;;;;;5082575;28;20259;-77
2022/01/25 14:07:50;;;;;;;15.73;13.00;;;11.20;1.00;;;;;;5091682;28;20569;-76
2022/01/25 14:10:28;;;;;;;18.60;13.87;;;11.40;1.00;;;;;;5091740;28;20205;-77
2022/01/25 14:23:57;;;;;;;15.87;12.27;;;11.50;1.00;;;;;;5091150;28;20654;-77
2022/01/25 14:26:30;;;;;;;17.90;12.97;;;11.30;1.00;;;;;;5091297;28;20737;-77
2022/01/25 14:29:07;;;;;;;14.73;11.13;;;11.20;1.00;;;;;;5091180;28;20198;-77
2022/01/25 14:31:41;;;;;;;17.33;11.90;;;11.40;1.00;;;;;;5091803;28;20209;-77
2022/01/25 14:34:11;;;;;;;14.70;12.87;;;11.50;1.00;;;;;;5091402;28;20597;-76